createdAt,value
2018-07-30T00:00:22.388Z,118.6296
2018-07-30T00:01:27.225Z,119.6389
2018-07-30T00:02:32.481Z,119.3879
2018-07-30T00:03:37.686Z,119.6389
2018-07-30T00:04:43.128Z,118.8806
2018-07-30T00:05:48.429Z,119.1342
2018-07-30T00:06:54.066Z,119.6389
2018-07-30T00:07:58.931Z,119.1342
2018-07-30T00:09:04.406Z,119.1342
2018-07-30T00:10:09.868Z,118.6296
2018-07-30T00:11:15.019Z,117.7021
2018-07-30T00:12:20.189Z,117.7021
2018-07-30T00:13:25.805Z,117.7021
2018-07-30T00:14:31.238Z,118.6296
2018-07-30T00:15:36.401Z,119.1342
2018-07-30T00:16:41.650Z,117.8712
2018-07-30T00:17:46.813Z,118.1249
2018-07-30T00:18:52.720Z,118.3759
2018-07-30T00:19:58.227Z,117.7021
2018-07-30T00:21:03.100Z,118.1249
2018-07-30T00:22:08.531Z,118.6296
2018-07-30T00:23:13.728Z,119.1342
2018-07-30T00:24:18.650Z,118.6296
2018-07-30T00:25:24.124Z,119.6389
2018-07-30T00:26:29.557Z,118.8806
2018-07-30T00:27:34.961Z,119.1342
2018-07-30T00:28:39.846Z,119.1342
2018-07-30T00:29:45.295Z,118.8806
2018-07-30T00:30:50.229Z,117.7021
2018-07-30T00:31:55.385Z,118.3759
2018-07-30T00:33:00.275Z,118.6296
2018-07-30T00:34:05.685Z,118.3759
2018-07-30T00:35:10.549Z,118.3759
2018-07-30T00:36:15.137Z,118.8806
2018-07-30T00:37:20.554Z,118.8806
2018-07-30T00:38:25.990Z,118.6296
2018-07-30T00:39:31.550Z,117.7021
2018-07-30T00:40:36.727Z,117.8712
2018-07-30T00:41:41.898Z,117.8712
2018-07-30T00:42:47.446Z,118.3759
2018-07-30T00:43:52.204Z,118.3759
2018-07-30T00:44:57.644Z,117.4511
2018-07-30T00:46:03.059Z,118.8806
2018-07-30T00:47:08.233Z,118.1249
2018-07-30T00:48:12.901Z,118.3759
2018-07-30T00:49:18.155Z,118.6296
2018-07-30T00:50:23.032Z,118.1249
2018-07-30T00:51:28.667Z,117.8712
2018-07-30T00:52:34.186Z,117.8712
2018-07-30T00:53:39.340Z,117.4511
2018-07-30T00:54:45.029Z,116.4391
2018-07-30T00:55:49.449Z,118.1249
2018-07-30T00:56:54.790Z,118.1249
2018-07-30T00:58:00.846Z,117.7021
2018-07-30T00:59:06.096Z,117.1974
2018-07-30T01:00:11.540Z,118.3759
2018-07-30T01:01:17.397Z,116.9464
2018-07-30T01:02:22.546Z,117.4511
2018-07-30T01:03:28.150Z,117.4511
2018-07-30T01:04:33.592Z,117.1974
2018-07-30T01:05:39.033Z,117.7021
2018-07-30T01:06:44.567Z,117.8712
2018-07-30T01:07:49.435Z,117.4511
2018-07-30T01:08:54.044Z,117.7021
2018-07-30T01:09:59.162Z,117.4511
2018-07-30T01:11:03.748Z,117.8712
2018-07-30T01:12:09.299Z,117.7021
2018-07-30T01:13:14.710Z,117.4511
2018-07-30T01:14:19.632Z,117.7021
2018-07-30T01:15:25.319Z,117.4511
2018-07-30T01:16:30.717Z,117.1974
2018-07-30T01:17:36.153Z,117.7021
2018-07-30T01:18:41.704Z,117.4511
2018-07-30T01:19:46.873Z,117.8712
2018-07-30T01:20:52.050Z,117.4511
2018-07-30T01:21:57.665Z,116.6927
2018-07-30T01:23:02.819Z,117.4511
2018-07-30T01:24:07.985Z,117.4511
2018-07-30T01:25:13.522Z,117.4511
2018-07-30T01:26:18.955Z,117.1974
2018-07-30T01:28:44.555Z,117.1974
2018-07-30T01:29:49.714Z,117.4511
2018-07-30T01:30:55.521Z,117.7021
2018-07-30T01:32:00.434Z,117.1974
2018-07-30T01:33:05.579Z,117.7021
2018-07-30T01:34:11.126Z,116.9464
2018-07-30T01:35:16.656Z,116.9464
2018-07-30T01:36:22.094Z,116.6927
2018-07-30T01:37:42.251Z,117.1974
2018-07-30T01:38:47.406Z,116.9464
2018-07-30T01:39:52.714Z,116.1881
2018-07-30T01:40:58.215Z,116.4391
2018-07-30T01:42:03.086Z,116.4391
2018-07-30T01:43:08.773Z,115.9344
2018-07-30T01:44:14.284Z,116.4391
2018-07-30T01:45:19.480Z,115.4297
2018-07-30T01:46:24.935Z,115.9344
2018-07-30T01:47:30.380Z,116.4391
2018-07-30T01:48:36.063Z,115.4297
2018-07-30T01:49:41.504Z,114.925
2018-07-30T01:50:46.378Z,115.9344
2018-07-30T01:51:51.933Z,115.4297
2018-07-30T01:52:56.803Z,115.9344
2018-07-30T01:54:02.270Z,116.1881
2018-07-30T01:55:07.406Z,115.4297
2018-07-30T01:56:12.845Z,115.9344
2018-07-30T01:57:18.291Z,115.1787
2018-07-30T01:58:23.974Z,115.4297
2018-07-30T01:59:29.454Z,114.925
2018-07-30T02:00:34.941Z,115.1787
2018-07-30T02:01:39.827Z,114.6714
2018-07-30T02:02:45.035Z,115.1787
2018-07-30T02:03:50.586Z,115.1787
2018-07-30T02:04:56.064Z,114.925
2018-07-30T02:06:01.016Z,115.1787
2018-07-30T02:07:06.372Z,115.4297
2018-07-30T02:08:11.793Z,114.6714
2018-07-30T02:09:17.348Z,115.1787
2018-07-30T02:10:22.947Z,115.6834
2018-07-30T02:11:28.178Z,114.4203
2018-07-30T02:12:33.692Z,115.1787
2018-07-30T02:13:38.099Z,115.1787
2018-07-30T02:14:43.262Z,115.1787
2018-07-30T02:15:48.970Z,114.6714
2018-07-30T02:16:53.893Z,115.1787
2018-07-30T02:17:59.324Z,114.4203
2018-07-30T02:19:04.758Z,114.925
2018-07-30T02:20:10.247Z,114.4203
2018-07-30T02:21:15.128Z,114.925
2018-07-30T02:22:20.541Z,115.1787
2018-07-30T02:23:26.022Z,114.925
2018-07-30T02:24:31.572Z,114.925
2018-07-30T02:25:37.047Z,113.9157
2018-07-30T02:26:41.925Z,115.1787
2018-07-30T02:27:47.478Z,114.6714
2018-07-30T02:28:52.115Z,113.9157
2018-07-30T02:29:57.583Z,114.4203
2018-07-30T02:31:02.723Z,113.662
2018-07-30T02:32:07.883Z,113.9157
2018-07-30T02:33:13.038Z,114.1667
2018-07-30T02:34:18.818Z,114.6714
2018-07-30T02:35:23.992Z,115.1787
2018-07-30T02:36:29.398Z,113.9157
2018-07-30T02:37:34.312Z,113.662
2018-07-30T02:38:38.983Z,114.1667
2018-07-30T02:39:44.455Z,114.1667
2018-07-30T02:40:49.351Z,113.9157
2018-07-30T02:41:54.904Z,114.4203
2018-07-30T02:43:00.775Z,114.4203
2018-07-30T02:44:05.658Z,113.9157
2018-07-30T02:45:10.919Z,114.925
2018-07-30T02:46:16.365Z,114.4203
2018-07-30T02:47:21.521Z,114.1667
2018-07-30T02:48:41.210Z,114.925
2018-07-30T02:49:46.646Z,113.662
2018-07-30T02:50:52.077Z,113.9157
2018-07-30T02:51:57.355Z,113.662
2018-07-30T02:53:02.514Z,114.1667
2018-07-30T02:54:07.704Z,113.9157
2018-07-30T02:55:13.605Z,113.9157
2018-07-30T02:56:18.470Z,113.4929
2018-07-30T02:57:23.940Z,114.4203
2018-07-30T02:58:29.930Z,113.662
2018-07-30T02:59:35.118Z,114.1667
2018-07-30T03:00:40.685Z,114.1667
2018-07-30T03:01:45.077Z,114.6714
2018-07-30T03:02:49.968Z,113.4929
2018-07-30T03:03:55.772Z,113.9157
2018-07-30T03:05:00.555Z,113.9157
2018-07-30T03:06:05.701Z,113.9157
2018-07-30T03:07:10.945Z,113.662
2018-07-30T03:08:16.123Z,114.4203
2018-07-30T03:09:21.330Z,113.9157
2018-07-30T03:10:26.941Z,114.4203
2018-07-30T03:11:32.096Z,114.1667
2018-07-30T03:12:37.312Z,113.4929
2018-07-30T03:13:42.471Z,113.662
2018-07-30T03:14:47.641Z,113.662
2018-07-30T03:15:53.078Z,113.9157
2018-07-30T03:16:58.232Z,112.9882
2018-07-30T03:18:03.202Z,112.9882
2018-07-30T03:19:08.323Z,112.9882
2018-07-30T03:20:13.479Z,113.662
2018-07-30T03:21:18.939Z,113.4929
2018-07-30T03:22:24.641Z,112.9882
2018-07-30T03:23:30.073Z,113.662
2018-07-30T03:24:35.635Z,112.5681
2018-07-30T03:25:40.914Z,112.9882
2018-07-30T03:26:46.361Z,112.9882
2018-07-30T03:27:51.924Z,113.2419
2018-07-30T03:28:56.917Z,113.2419
2018-07-30T03:30:02.088Z,112.8217
2018-07-30T03:31:06.683Z,113.2419
2018-07-30T03:32:11.938Z,113.2419
2018-07-30T03:33:16.834Z,113.2419
2018-07-30T03:34:22.358Z,112.8217
2018-07-30T03:35:27.795Z,112.8217
2018-07-30T03:36:33.474Z,112.8217
2018-07-30T03:37:38.979Z,112.8217
2018-07-30T03:38:44.411Z,112.8217
2018-07-30T03:39:50.211Z,113.4929
2018-07-30T03:40:55.754Z,112.8217
2018-07-30T03:42:00.634Z,112.9882
2018-07-30T03:43:05.752Z,112.9882
2018-07-30T03:44:11.301Z,113.2419
2018-07-30T03:45:15.975Z,112.5681
2018-07-30T03:46:21.481Z,112.9882
2018-07-30T03:47:26.676Z,112.9882
2018-07-30T03:48:32.220Z,112.9882
2018-07-30T03:49:37.374Z,112.8217
2018-07-30T03:50:42.587Z,113.2419
2018-07-30T03:51:48.091Z,112.8217
2018-07-30T03:52:53.521Z,111.8124
2018-07-30T03:53:58.557Z,112.5681
2018-07-30T03:55:03.862Z,112.0634
2018-07-30T03:56:08.750Z,112.9882
2018-07-30T03:57:13.901Z,112.5681
2018-07-30T03:58:19.645Z,111.5587
2018-07-30T03:59:24.600Z,112.9882
2018-07-30T04:00:30.133Z,112.0634
2018-07-30T04:01:35.305Z,112.3171
2018-07-30T04:02:40.464Z,111.8124
2018-07-30T04:03:46.042Z,112.0634
2018-07-30T04:04:50.731Z,112.0634
2018-07-30T04:05:56.138Z,111.5587
2018-07-30T04:07:01.696Z,112.0634
2018-07-30T04:08:06.572Z,111.8124
2018-07-30T04:09:11.790Z,112.3171
2018-07-30T04:10:17.190Z,112.0634
2018-07-30T04:11:22.673Z,112.3171
2018-07-30T04:12:28.729Z,112.0634
2018-07-30T04:13:33.595Z,112.3171
2018-07-30T04:14:38.488Z,111.3051
2018-07-30T04:15:44.173Z,111.5587
2018-07-30T04:16:49.318Z,112.0634
2018-07-30T04:17:54.785Z,111.8124
2018-07-30T04:19:00.465Z,111.8124
2018-07-30T04:20:05.615Z,112.3171
2018-07-30T04:21:11.070Z,112.5681
2018-07-30T04:22:17.323Z,112.3171
2018-07-30T04:23:22.938Z,112.3171
2018-07-30T04:24:28.624Z,111.5587
2018-07-30T04:25:33.888Z,111.5587
2018-07-30T04:26:38.488Z,111.8124
2018-07-30T04:27:44.182Z,112.0634
2018-07-30T04:28:49.415Z,112.0634
2018-07-30T04:29:54.843Z,111.3051
2018-07-30T04:31:00.277Z,112.0634
2018-07-30T04:32:05.549Z,110.803
2018-07-30T04:33:11.024Z,111.054
2018-07-30T04:34:16.512Z,111.5587
2018-07-30T04:35:21.737Z,112.0634
2018-07-30T04:36:28.089Z,112.0634
2018-07-30T04:37:32.973Z,112.0634
2018-07-30T04:38:38.460Z,112.3171
2018-07-30T04:39:44.165Z,112.0634
2018-07-30T04:40:49.343Z,112.3171
2018-07-30T04:41:54.532Z,112.0634
2018-07-30T04:42:59.989Z,112.3171
2018-07-30T04:44:05.141Z,112.8217
2018-07-30T04:45:10.296Z,111.5587
2018-07-30T04:46:15.731Z,112.3171
2018-07-30T04:47:20.870Z,111.5587
2018-07-30T04:48:41.322Z,111.5587
2018-07-30T04:49:46.485Z,111.8124
2018-07-30T04:50:51.721Z,111.8124
2018-07-30T04:51:57.446Z,112.3171
2018-07-30T04:53:02.332Z,111.3051
2018-07-30T04:54:07.484Z,111.8124
2018-07-30T04:55:12.916Z,112.0634
2018-07-30T04:56:18.353Z,111.8124
2018-07-30T04:57:23.797Z,111.5587
2018-07-30T04:58:29.729Z,112.5681
2018-07-30T04:59:35.160Z,111.8124
2018-07-30T05:00:40.842Z,112.5681
2018-07-30T05:01:45.761Z,111.8124
2018-07-30T05:02:51.197Z,112.8217
2018-07-30T05:03:56.677Z,112.3171
2018-07-30T05:05:02.228Z,112.0634
2018-07-30T05:06:07.502Z,112.0634
2018-07-30T05:07:13.052Z,112.9882
2018-07-30T05:08:18.214Z,112.0634
2018-07-30T05:09:23.696Z,112.0634
2018-07-30T05:10:29.493Z,112.0634
2018-07-30T05:11:34.651Z,112.3171
2018-07-30T05:12:40.094Z,111.8124
2018-07-30T05:13:45.623Z,112.0634
2018-07-30T05:14:51.051Z,111.5587
2018-07-30T05:15:56.461Z,112.3171
2018-07-30T05:17:01.126Z,112.3171
2018-07-30T05:18:06.021Z,112.8217
2018-07-30T05:19:11.880Z,112.3171
2018-07-30T05:20:17.211Z,112.0634
2018-07-30T05:21:22.676Z,112.5681
2018-07-30T05:22:27.881Z,111.8124
2018-07-30T05:23:33.078Z,112.3171
2018-07-30T05:24:38.870Z,112.0634
2018-07-30T05:25:44.013Z,111.8124
2018-07-30T05:26:49.801Z,111.8124
2018-07-30T05:27:55.640Z,112.0634
2018-07-30T05:29:01.087Z,111.8124
2018-07-30T05:30:06.059Z,111.5587
2018-07-30T05:31:11.740Z,110.803
2018-07-30T05:32:16.614Z,111.3051
2018-07-30T05:33:22.125Z,111.5587
2018-07-30T05:34:42.460Z,111.054
2018-07-30T05:35:47.533Z,111.054
2018-07-30T05:36:52.928Z,110.5493
2018-07-30T05:37:58.184Z,111.3051
2018-07-30T05:39:02.780Z,110.2957
2018-07-30T05:40:08.338Z,110.803
2018-07-30T05:41:13.502Z,111.054
2018-07-30T05:42:18.979Z,110.2957
2018-07-30T05:43:24.857Z,110.0447
2018-07-30T05:44:29.787Z,110.803
2018-07-30T05:45:35.614Z,110.5493
2018-07-30T05:46:40.774Z,109.791
2018-07-30T05:47:45.969Z,110.5493
2018-07-30T05:48:51.648Z,110.5493
2018-07-30T05:49:57.198Z,109.791
2018-07-30T05:51:02.368Z,110.2957
2018-07-30T05:52:07.775Z,110.0447
2018-07-30T05:53:12.651Z,110.5493
2018-07-30T05:54:18.109Z,109.791
2018-07-30T05:55:23.791Z,109.791
2018-07-30T05:56:28.670Z,109.791
2018-07-30T05:57:34.098Z,109.2863
2018-07-30T05:58:39.531Z,110.0447
2018-07-30T05:59:44.960Z,109.0353
2018-07-30T06:00:51.019Z,109.54
2018-07-30T06:01:56.441Z,109.2863
2018-07-30T06:03:01.995Z,110.5493
2018-07-30T06:04:07.082Z,109.791
2018-07-30T06:05:12.533Z,109.2863
2018-07-30T06:06:18.046Z,108.6152
2018-07-30T06:07:23.573Z,109.54
2018-07-30T06:08:29.021Z,109.0353
2018-07-30T06:09:34.793Z,108.8662
2018-07-30T06:10:40.011Z,108.6152
2018-07-30T06:11:45.312Z,108.8662
2018-07-30T06:12:51.022Z,107.8568
2018-07-30T06:13:56.477Z,108.6152
2018-07-30T06:15:01.661Z,108.6152
2018-07-30T06:16:07.066Z,108.3615
2018-07-30T06:17:12.247Z,108.6152
2018-07-30T06:18:17.405Z,108.3615
2018-07-30T06:19:22.860Z,108.1105
2018-07-30T06:20:27.840Z,108.3615
2018-07-30T06:21:32.829Z,108.1105
2018-07-30T06:22:38.022Z,108.1105
2018-07-30T06:23:42.619Z,108.3615
2018-07-30T06:24:48.238Z,108.3615
2018-07-30T06:25:53.128Z,108.1105
2018-07-30T06:26:58.357Z,108.1105
2018-07-30T06:28:03.871Z,108.3615
2018-07-30T06:29:08.740Z,107.3521
2018-07-30T06:30:13.941Z,108.1105
2018-07-30T06:31:19.301Z,108.1105
2018-07-30T06:32:24.177Z,108.1105
2018-07-30T06:33:29.606Z,108.3615
2018-07-30T06:34:34.469Z,108.8662
2018-07-30T06:35:39.931Z,109.1199
2018-07-30T06:36:45.420Z,108.1105
2018-07-30T06:37:50.579Z,108.1105
2018-07-30T06:38:55.824Z,108.6152
2018-07-30T06:40:01.624Z,108.8662
2018-07-30T06:41:06.421Z,107.8568
2018-07-30T06:42:11.671Z,108.1105
2018-07-30T06:43:17.119Z,108.6152
2018-07-30T06:44:22.354Z,107.8568
2018-07-30T06:45:28.133Z,108.1105
2018-07-30T06:46:32.730Z,107.8568
2018-07-30T06:47:37.914Z,108.3615
2018-07-30T06:48:43.241Z,108.3615
2018-07-30T06:49:48.678Z,107.8568
2018-07-30T06:50:53.825Z,106.5964
2018-07-30T06:51:59.110Z,107.1011
2018-07-30T06:53:03.699Z,107.3521
2018-07-30T06:54:09.139Z,107.8568
2018-07-30T06:55:15.050Z,108.1105
2018-07-30T06:56:19.919Z,107.1011
2018-07-30T06:57:25.806Z,107.8568
2018-07-30T06:58:31.336Z,107.3521
2018-07-30T06:59:36.204Z,106.8475
2018-07-30T07:00:41.615Z,107.1011
2018-07-30T07:01:47.136Z,107.1011
2018-07-30T07:02:52.288Z,107.1011
2018-07-30T07:03:57.722Z,107.1011
2018-07-30T07:05:02.654Z,106.5964
2018-07-30T07:06:07.600Z,107.1011
2018-07-30T07:07:13.318Z,106.8475
2018-07-30T07:08:18.171Z,106.3428
2018-07-30T07:09:23.324Z,107.1011
2018-07-30T07:10:28.824Z,106.0918
2018-07-30T07:11:33.709Z,106.5964
2018-07-30T07:12:39.115Z,107.1011
2018-07-30T07:13:43.788Z,107.1011
2018-07-30T07:14:49.217Z,106.5964
2018-07-30T07:15:54.531Z,107.3521
2018-07-30T07:17:00.393Z,106.5964
2018-07-30T07:18:05.183Z,105.9226
2018-07-30T07:19:10.920Z,106.1763
2018-07-30T07:20:16.550Z,105.9226
2018-07-30T07:21:21.675Z,106.3428
2018-07-30T07:22:27.387Z,106.3428
2018-07-30T07:23:32.911Z,106.1763
2018-07-30T07:24:38.529Z,106.1763
2018-07-30T07:25:43.897Z,106.3428
2018-07-30T07:26:48.778Z,106.8475
2018-07-30T07:27:54.382Z,106.3428
2018-07-30T07:28:59.217Z,105.9226
2018-07-30T07:30:04.085Z,105.9226
2018-07-30T07:31:08.975Z,106.3428
2018-07-30T07:32:14.120Z,105.9226
2018-07-30T07:33:19.308Z,106.3428
2018-07-30T07:34:24.573Z,106.1763
2018-07-30T07:35:30.007Z,105.9226
2018-07-30T07:36:35.285Z,106.1763
2018-07-30T07:37:40.164Z,106.3428
2018-07-30T07:38:45.030Z,105.9226
2018-07-30T07:39:50.877Z,106.5964
2018-07-30T07:40:55.476Z,106.5964
2018-07-30T07:42:00.912Z,106.5964
2018-07-30T07:43:06.316Z,106.1763
2018-07-30T07:44:11.193Z,105.6716
2018-07-30T07:45:16.096Z,106.5964
2018-07-30T07:46:22.068Z,105.6716
2018-07-30T07:47:27.039Z,105.1669
2018-07-30T07:48:32.755Z,105.418
2018-07-30T07:49:38.202Z,105.9226
2018-07-30T07:50:44.267Z,105.418
2018-07-30T07:51:50.389Z,105.1669
2018-07-30T07:52:55.826Z,105.1669
2018-07-30T07:54:01.293Z,105.1669
2018-07-30T07:55:06.695Z,104.7468
2018-07-30T07:56:11.369Z,105.6716
2018-07-30T07:57:16.563Z,105.418
2018-07-30T07:58:21.676Z,106.4273
2018-07-30T07:59:27.355Z,106.1763
2018-07-30T08:00:32.782Z,106.1763
2018-07-30T08:01:37.065Z,106.4273
2018-07-30T08:02:42.512Z,106.1763
2018-07-30T08:03:48.088Z,105.418
2018-07-30T08:04:53.270Z,105.9226
2018-07-30T08:05:59.253Z,106.1763
2018-07-30T08:07:04.670Z,105.9226
2018-07-30T08:08:09.919Z,105.6716
2018-07-30T08:09:15.356Z,106.4273
2018-07-30T08:10:20.580Z,106.4273
2018-07-30T08:11:25.480Z,105.6716
2018-07-30T08:12:30.911Z,105.9226
2018-07-30T08:13:36.318Z,106.1763
2018-07-30T08:14:41.828Z,106.4273
2018-07-30T08:15:47.096Z,106.5964
2018-07-30T08:16:51.967Z,106.5964
2018-07-30T08:17:57.090Z,105.9226
2018-07-30T08:19:02.349Z,106.5964
2018-07-30T08:20:06.388Z,106.5964
2018-07-30T08:21:11.581Z,106.5964
2018-07-30T08:22:17.777Z,106.8475
2018-07-30T08:23:23.398Z,106.5964
2018-07-30T08:24:28.946Z,105.6716
2018-07-30T08:25:34.417Z,106.4273
2018-07-30T08:26:39.608Z,106.1763
2018-07-30T08:27:45.405Z,106.5964
2018-07-30T08:28:50.395Z,106.4273
2018-07-30T08:29:55.551Z,106.4273
2018-07-30T08:31:00.682Z,105.9226
2018-07-30T08:32:05.669Z,106.1763
2018-07-30T08:33:11.176Z,106.4273
2018-07-30T08:34:16.961Z,106.1763
2018-07-30T08:35:22.241Z,105.9226
2018-07-30T08:36:28.676Z,105.6716
2018-07-30T08:37:34.224Z,105.9226
2018-07-30T08:38:39.167Z,104.7468
2018-07-30T08:39:44.386Z,105.6716
2018-07-30T08:40:50.030Z,105.418
2018-07-30T08:41:55.569Z,105.418
2018-07-30T08:43:01.855Z,106.4273
2018-07-30T08:44:06.458Z,106.5964
2018-07-30T08:45:11.922Z,106.1763
2018-07-30T08:46:17.328Z,106.1763
2018-07-30T08:47:22.761Z,106.1763
2018-07-30T08:48:28.250Z,106.4273
2018-07-30T08:49:33.229Z,106.4273
2018-07-30T08:50:38.094Z,105.418
2018-07-30T08:51:43.309Z,105.418
2018-07-30T08:52:48.979Z,105.6716
2018-07-30T08:53:54.192Z,105.9226
2018-07-30T08:54:59.602Z,105.1669
2018-07-30T08:56:04.463Z,105.6716
2018-07-30T08:57:09.913Z,105.9226
2018-07-30T08:58:15.641Z,105.1669
2018-07-30T08:59:20.514Z,105.6716
2018-07-30T09:00:40.671Z,104.4932
2018-07-30T09:01:45.892Z,105.9226
2018-07-30T09:02:51.319Z,105.418
2018-07-30T09:03:56.806Z,105.418
2018-07-30T09:05:02.030Z,105.418
2018-07-30T09:06:06.894Z,105.9226
2018-07-30T09:07:12.501Z,104.2421
2018-07-30T09:08:17.539Z,105.418
2018-07-30T09:09:22.724Z,105.9226
2018-07-30T09:10:28.545Z,105.1669
2018-07-30T09:11:33.813Z,105.9226
2018-07-30T09:12:39.636Z,105.418
2018-07-30T09:13:45.434Z,105.6716
2018-07-30T09:14:50.939Z,106.1763
2018-07-30T09:15:56.140Z,105.1669
2018-07-30T09:17:01.298Z,105.9226
2018-07-30T09:18:06.354Z,105.418
2018-07-30T09:19:12.221Z,105.418
2018-07-30T09:20:17.116Z,106.1763
2018-07-30T09:21:22.592Z,106.4273
2018-07-30T09:22:28.692Z,106.5964
2018-07-30T09:23:33.876Z,106.1763
2018-07-30T09:24:39.384Z,105.6716
2018-07-30T09:25:44.922Z,106.5964
2018-07-30T09:26:50.231Z,106.5964
2018-07-30T09:27:54.798Z,106.5964
2018-07-30T09:28:59.954Z,105.9226
2018-07-30T09:30:05.420Z,106.1763
2018-07-30T09:31:10.553Z,105.9226
2018-07-30T09:32:16.359Z,106.1763
2018-07-30T09:33:21.800Z,106.5964
2018-07-30T09:34:26.949Z,106.5964
2018-07-30T09:35:33.064Z,106.1763
2018-07-30T09:36:38.169Z,106.1763
2018-07-30T09:37:43.047Z,106.8475
2018-07-30T09:38:48.870Z,106.8475
2018-07-30T09:39:55.501Z,105.9226
2018-07-30T09:41:00.715Z,106.4273
2018-07-30T09:42:05.683Z,106.8475
2018-07-30T09:43:11.245Z,107.1011
2018-07-30T09:44:16.109Z,106.1763
2018-07-30T09:45:21.053Z,107.1011
2018-07-30T09:46:26.595Z,107.3521
2018-07-30T09:47:31.841Z,107.6058
2018-07-30T09:48:37.090Z,107.3521
2018-07-30T09:49:42.279Z,106.4273
2018-07-30T09:50:47.563Z,107.1011
2018-07-30T09:51:52.813Z,107.3521
2018-07-30T09:52:58.501Z,107.1011
2018-07-30T09:54:04.016Z,106.4273
2018-07-30T09:55:09.748Z,106.8475
2018-07-30T09:56:15.501Z,107.6058
2018-07-30T09:57:20.729Z,107.1011
2018-07-30T09:58:25.950Z,106.4273
2018-07-30T09:59:30.820Z,106.8475
2018-07-30T10:00:35.934Z,106.8475
2018-07-30T10:01:41.184Z,107.3521
2018-07-30T10:02:46.594Z,107.3521
2018-07-30T10:03:52.281Z,107.3521
2018-07-30T10:04:57.144Z,107.8568
2018-07-30T10:06:02.312Z,107.8568
2018-07-30T10:07:07.841Z,108.1105
2018-07-30T10:08:13.366Z,107.3521
2018-07-30T10:09:18.244Z,107.6058
2018-07-30T10:10:24.180Z,108.1105
2018-07-30T10:11:28.811Z,107.6058
2018-07-30T10:12:33.969Z,107.8568
2018-07-30T10:13:39.197Z,107.6058
2018-07-30T10:14:44.695Z,107.1011
2018-07-30T10:15:49.837Z,108.6152
2018-07-30T10:16:54.624Z,108.1105
2018-07-30T10:17:59.588Z,108.6152
2018-07-30T10:19:04.391Z,108.1105
2018-07-30T10:20:09.672Z,108.6152
2018-07-30T10:21:15.126Z,108.3615
2018-07-30T10:22:20.590Z,108.6152
2018-07-30T10:23:26.028Z,108.8662
2018-07-30T10:24:31.325Z,109.1199
2018-07-30T10:25:35.911Z,109.1199
2018-07-30T10:26:41.401Z,108.8662
2018-07-30T10:27:46.885Z,109.3709
2018-07-30T10:28:52.341Z,109.1199
2018-07-30T10:29:57.609Z,110.2957
2018-07-30T10:31:03.496Z,109.6245
2018-07-30T10:32:08.370Z,108.8662
2018-07-30T10:33:13.592Z,109.3709
2018-07-30T10:34:18.997Z,109.1199
2018-07-30T10:35:24.155Z,109.6245
2018-07-30T10:36:29.089Z,110.2957
2018-07-30T10:37:33.688Z,110.2957
2018-07-30T10:38:39.335Z,109.3709
2018-07-30T10:39:45.139Z,110.2957
2018-07-30T10:40:50.299Z,109.791
2018-07-30T10:41:55.529Z,109.6245
2018-07-30T10:43:01.120Z,110.0447
2018-07-30T10:44:05.988Z,109.3709
2018-07-30T10:45:11.150Z,110.2957
2018-07-30T10:46:17.070Z,110.2957
2018-07-30T10:47:21.725Z,110.5493
2018-07-30T10:48:41.881Z,110.0447
2018-07-30T10:49:46.467Z,110.0447
2018-07-30T10:50:51.654Z,110.5493
2018-07-30T10:51:56.930Z,110.803
2018-07-30T10:53:02.382Z,110.0447
2018-07-30T10:54:06.462Z,109.791
2018-07-30T10:55:11.062Z,109.791
2018-07-30T10:56:16.212Z,109.791
2018-07-30T10:57:21.713Z,109.6245
2018-07-30T10:58:27.210Z,109.3709
2018-07-30T10:59:31.890Z,110.803
2018-07-30T11:00:37.416Z,111.3051
2018-07-30T11:01:42.584Z,110.5493
2018-07-30T11:02:47.750Z,111.054
2018-07-30T11:03:53.443Z,111.054
2018-07-30T11:04:58.316Z,111.054
2018-07-30T11:06:03.253Z,110.803
2018-07-30T11:07:08.646Z,110.2957
2018-07-30T11:08:12.967Z,111.054
2018-07-30T11:09:17.843Z,111.054
2018-07-30T11:10:23.285Z,111.054
2018-07-30T11:11:28.470Z,110.803
2018-07-30T11:12:33.866Z,110.5493
2018-07-30T11:13:39.386Z,111.3051
2018-07-30T11:14:44.478Z,111.3051
2018-07-30T11:15:50.381Z,111.8124
2018-07-30T11:16:55.536Z,111.5587
2018-07-30T11:18:00.968Z,111.3051
2018-07-30T11:19:06.595Z,111.054
2018-07-30T11:20:11.680Z,111.5587
2018-07-30T11:21:17.138Z,112.0634
2018-07-30T11:22:22.516Z,111.5587
2018-07-30T11:23:27.869Z,111.5587
2018-07-30T11:24:32.753Z,111.8124
2018-07-30T11:25:37.910Z,111.3051
2018-07-30T11:26:43.146Z,112.0634
2018-07-30T11:27:48.631Z,112.3171
2018-07-30T11:28:54.113Z,112.5681
2018-07-30T11:29:59.537Z,112.3171
2018-07-30T11:31:04.728Z,111.5587
2018-07-30T11:32:09.646Z,111.5587
2018-07-30T11:33:15.216Z,111.5587
2018-07-30T11:34:20.537Z,112.0634
2018-07-30T11:35:25.715Z,111.3051
2018-07-30T11:36:30.829Z,111.3051
2018-07-30T11:37:36.291Z,111.8124
2018-07-30T11:38:41.455Z,111.5587
2018-07-30T11:39:46.862Z,111.8124
2018-07-30T11:40:51.520Z,111.054
2018-07-30T11:41:56.390Z,112.3171
2018-07-30T11:43:02.805Z,111.8124
2018-07-30T11:44:07.352Z,111.8124
2018-07-30T11:45:12.507Z,111.8124
2018-07-30T11:46:18.456Z,112.0634
2018-07-30T11:47:23.933Z,112.3171
2018-07-30T11:48:29.737Z,112.5681
2018-07-30T11:49:34.819Z,112.3171
2018-07-30T11:50:40.011Z,112.5681
2018-07-30T11:51:45.412Z,112.5681
2018-07-30T11:52:50.919Z,112.5681
2018-07-30T11:53:56.439Z,112.0634
2018-07-30T11:55:01.721Z,112.3171
2018-07-30T11:56:05.768Z,112.3171
2018-07-30T11:57:10.707Z,112.5681
2018-07-30T11:58:15.826Z,112.9882
2018-07-30T11:59:20.615Z,112.3171
2018-07-30T12:00:26.943Z,112.3171
2018-07-30T12:01:32.794Z,112.5681
2018-07-30T12:02:38.002Z,112.8217
2018-07-30T12:03:43.497Z,111.5587
2018-07-30T12:04:48.364Z,112.8217
2018-07-30T12:05:53.299Z,112.0634
2018-07-30T12:06:58.627Z,112.0634
2018-07-30T12:08:02.936Z,112.8217
2018-07-30T12:09:08.094Z,112.0634
2018-07-30T12:10:13.352Z,111.8124
2018-07-30T12:11:18.906Z,112.0634
2018-07-30T12:13:44.842Z,112.3171
2018-07-30T12:14:49.933Z,112.0634
2018-07-30T12:15:55.075Z,112.3171
2018-07-30T12:17:00.255Z,112.5681
2018-07-30T12:18:04.883Z,112.3171
2018-07-30T12:19:10.702Z,113.662
2018-07-30T12:20:15.555Z,112.9882
2018-07-30T12:21:20.986Z,112.3171
2018-07-30T12:22:26.593Z,112.8217
2018-07-30T12:23:31.755Z,112.9882
2018-07-30T12:24:37.185Z,112.9882
2018-07-30T12:25:42.319Z,113.2419
2018-07-30T12:26:47.786Z,113.2419
2018-07-30T12:27:52.615Z,112.9882
2018-07-30T12:28:57.817Z,113.2419
2018-07-30T12:30:03.471Z,112.9882
2018-07-30T12:31:08.673Z,112.9882
2018-07-30T12:32:14.095Z,113.4929
2018-07-30T12:33:19.254Z,113.662
2018-07-30T12:34:24.760Z,113.9157
2018-07-30T12:35:29.936Z,113.4929
2018-07-30T12:36:34.978Z,113.9157
2018-07-30T12:37:40.314Z,113.9157
2018-07-30T12:38:45.747Z,114.1667
2018-07-30T12:39:51.499Z,113.9157
2018-07-30T12:40:56.092Z,113.9157
2018-07-30T12:42:01.741Z,113.9157
2018-07-30T12:43:07.461Z,113.9157
2018-07-30T12:44:12.895Z,113.662
2018-07-30T12:45:17.818Z,113.2419
2018-07-30T12:46:23.305Z,114.6714
2018-07-30T12:47:28.159Z,113.2419
2018-07-30T12:48:33.844Z,113.4929
2018-07-30T12:49:38.987Z,113.4929
2018-07-30T12:50:44.419Z,114.1667
2018-07-30T12:51:50.176Z,114.6714
2018-07-30T12:52:55.651Z,114.4203